Tusayan, Arizona
Current Conditions -  °F | °C
As of 4:54 PM on Tuesday 21 Oct 2014 (Local Time) from KGCN Reporting Station
Scattered Clouds Scattered Clouds  
Wind Chill: 64°   Ceiling: Unl
Heat Index: 64°   Visibility: 10mi
Dew Point: 34°   Wind: 8mph
Humidity: 33%   Direction: 230°SW
Pressure: 30.08"   Gusts: NA
Location:  36.0547°N, 112.138°W
Report Text: KGCN 212354Z 23007KT 10SM SCT070 18/01 A3008 RMK AO2 SLP137 T01780011 10200 20167 56004
Loading
Personal Weather Stations






























Interactive Weather Map
Tropical Storm Tracking
New forecast layout! Learn more

10-Day Weather Forecast

Advertisements
Track Severe Weather on mobile